Weather at Metropolitan Oakland International Airport

Public forecast

Using degrees Fahrenheit for public forecast. Weather courtesy of forecast.io.

Current aviation weather report (METAR) for Metropolitan Oakland International Airport

2024/04/18 03:53 (retrieved 33 minutes ago)

KOAK 180353Z 29008KT 10SM FEW180 FEW200 16/12 A2996 RMK AO2 SLP147 T01560117

Closest aviation forecast (TAF) to Metropolitan Oakland International Airport

Forecast is more than 12 hours old.

Closest forecast is Travis Air Force Base, 35.4 nm (65.6 km) NNE.

2024/04/17 11:16 (retrieved 17 hours ago)

TAF KSUU 171100Z 1711/1817 23009KT 9999 SCT200 QNH3001INS BECMG 1714/1715 01012KT 9999 FEW200 QNH2997INS BECMG 1723/1724 VRB06KT 9999 SKC QNH2994INS TX26/1723Z TN09/1713Z